DONNELLS (DON)

Elevation: 4835' · STANISLAUS R basin · Operator: US Bureau of Reclamation

Provisional data, subject to change.
Query executed Friday at 17:58:54   clock

Select a sensor type for a plot of data.
Note: Reservoir Flows are daily averages.

Earlier

Date STORAGE    RES CHG    OUTFLOW   
 AF   AF   CFS  
10/29/2014 40001 54 25
10/30/2014 40048 47 26
10/31/2014 39760 -288 245
11/01/2014 39401 -359 252
11/02/2014 38990 -411 274
11/03/2014 38405 -585 363
11/04/2014 37894 -511 300
11/05/2014 37487 -407 245
11/06/2014 36878 -609 388
11/07/2014 36362 -516 283
11/08/2014 35821 -541 350
11/09/2014 35321 -500 302
11/10/2014 34860 -461 281
11/11/2014 34348 -512 289
11/12/2014 33746 -602 364
11/13/2014 33088 -658 396
11/14/2014 32979 -109 108
11/15/2014 32870 -109 116
11/16/2014 32754 -116 126
11/17/2014 32439 -315 213
11/18/2014 32225 -214 157
11/19/2014 31967 -258 189
11/20/2014 31744 -223 166
11/21/2014 31622 -122 111
11/22/2014 31619 -3 95
11/23/2014 31559 -60 139
11/24/2014 31481 -78 103
11/25/2014 31290 -191 170
11/26/2014 31132 -158 134
11/27/2014 31071 -61 87
11/28/2014 -- -- --

Later | Latest

Warning! This data is preliminary and subject to revision.

Show DON Map | Plot DON Data | 1 Month DON Data | Real-Time DON Data | DON Info